Time;durP1;ratioP1;P1;durP2;ratioP2;P2;SDS_P1;SDS_P2;PMS_P1;PMS_P2;Temp;Humidity;BMP_temperature;BMP_pressure;BME280_temperature;BME280_humidity;BME280_pressure;Samples;Min_cycle;Max_cycle;Signal;HPM_P1;HPM_P2
2022/08/04 00:00:13;;;;;;;1.90;1.80;;;21.40;99.90;;;;;;493277;241;29214;-72
2022/08/04 00:02:14;;;;;;;1.83;1.73;;;21.40;99.90;;;;;;493302;241;29133;-68
2022/08/04 00:04:15;;;;;;;1.73;1.63;;;21.40;99.90;;;;;;493234;241;28703;-68
2022/08/04 00:06:16;;;;;;;1.90;1.80;;;21.40;99.90;;;;;;493219;241;28676;-68
2022/08/04 00:08:18;;;;;;;2.10;1.63;;;21.40;99.90;;;;;;493274;241;28695;-68
2022/08/04 00:10:19;;;;;;;2.17;2.07;;;21.40;99.90;;;;;;493314;241;28707;-71
2022/08/04 00:12:20;;;;;;;2.00;1.90;;;21.40;99.90;;;;;;493284;240;28685;-68
2022/08/04 00:14:21;;;;;;;2.30;2.20;;;21.30;99.90;;;;;;493266;241;28790;-68
2022/08/04 00:16:23;;;;;;;6.50;1.90;;;21.30;99.90;;;;;;493053;241;28701;-67
2022/08/04 00:18:24;;;;;;;1.93;1.83;;;21.30;99.90;;;;;;493250;241;29152;-67
2022/08/04 00:20:25;;;;;;;2.07;1.97;;;21.20;99.90;;;;;;493282;241;29170;-73
2022/08/04 00:22:26;;;;;;;2.10;2.00;;;21.20;99.90;;;;;;493257;241;28679;-68
2022/08/04 00:24:28;;;;;;;2.27;2.17;;;21.20;99.90;;;;;;493268;241;28703;-69
2022/08/04 00:26:29;;;;;;;1.97;1.87;;;21.20;99.90;;;;;;493187;241;28751;-68
2022/08/04 00:28:31;;;;;;;2.40;2.30;;;21.20;99.90;;;;;;493269;241;28777;-68
2022/08/04 00:30:32;;;;;;;2.27;2.17;;;21.30;99.90;;;;;;493277;241;28720;-71
2022/08/04 00:32:33;;;;;;;2.10;2.00;;;21.30;99.90;;;;;;493288;241;28730;-68
2022/08/04 00:34:34;;;;;;;2.20;2.10;;;21.30;99.90;;;;;;493203;241;28719;-68
2022/08/04 00:36:35;;;;;;;2.07;1.97;;;21.30;99.90;;;;;;493125;241;28689;-67
2022/08/04 00:38:37;;;;;;;2.33;2.23;;;21.30;99.90;;;;;;493329;241;29129;-68
2022/08/04 00:40:38;;;;;;;2.57;2.40;;;21.30;99.90;;;;;;493280;241;29180;-68
2022/08/04 00:42:39;;;;;;;2.23;2.13;;;21.30;99.90;;;;;;493268;241;29346;-68
2022/08/04 00:44:40;;;;;;;1.90;1.80;;;21.30;99.90;;;;;;493278;241;28813;-67
2022/08/04 00:46:42;;;;;;;2.13;2.03;;;21.30;99.90;;;;;;493186;241;28703;-68
2022/08/04 00:48:43;;;;;;;1.97;1.87;;;21.20;99.90;;;;;;493313;241;28715;-68
2022/08/04 00:50:45;;;;;;;2.33;2.13;;;21.10;99.90;;;;;;493296;241;28718;-70
2022/08/04 00:52:45;;;;;;;2.00;1.90;;;21.10;99.90;;;;;;493279;241;28778;-68
2022/08/04 00:54:47;;;;;;;2.03;1.93;;;21.10;99.90;;;;;;493270;241;28727;-68
2022/08/04 00:56:48;;;;;;;1.70;1.60;;;21.10;99.90;;;;;;493188;241;28675;-68
2022/08/04 00:58:49;;;;;;;3.83;2.20;;;21.10;99.90;;;;;;493294;241;28679;-68
2022/08/04 01:00:50;;;;;;;1.90;1.80;;;21.00;99.90;;;;;;493294;241;28721;-70
2022/08/04 01:02:52;;;;;;;1.90;1.80;;;21.00;99.90;;;;;;493268;241;29646;-68
2022/08/04 01:04:53;;;;;;;2.17;2.07;;;21.00;99.90;;;;;;493267;241;29190;-68
2022/08/04 01:06:54;;;;;;;2.17;2.07;;;21.00;99.90;;;;;;493220;241;29278;-68
2022/08/04 01:08:55;;;;;;;2.17;2.07;;;20.90;99.90;;;;;;493287;241;28802;-68
2022/08/04 01:10:57;;;;;;;2.07;1.97;;;20.80;99.90;;;;;;493297;241;28730;-70
2022/08/04 01:12:58;;;;;;;2.30;2.20;;;20.80;99.90;;;;;;493280;241;28671;-67
2022/08/04 01:14:59;;;;;;;2.07;1.97;;;20.60;99.90;;;;;;493290;241;28742;-68
2022/08/04 01:17:00;;;;;;;4.50;2.00;;;20.60;99.90;;;;;;493239;241;28724;-68
2022/08/04 01:19:02;;;;;;;1.97;1.87;;;20.60;99.90;;;;;;493274;241;28716;-69
2022/08/04 01:21:03;;;;;;;2.30;2.20;;;20.60;99.90;;;;;;493284;241;28734;-69
2022/08/04 01:23:04;;;;;;;2.07;1.97;;;20.60;99.90;;;;;;493210;241;28782;-68
2022/08/04 01:25:05;;;;;;;2.50;2.40;;;20.60;99.90;;;;;;493282;241;28718;-68
2022/08/04 01:27:07;;;;;;;2.47;2.33;;;20.60;99.90;;;;;;493164;241;29286;-71
2022/08/04 01:29:11;;;;;;;2.10;2.00;;;20.60;99.90;;;;;;493269;241;29262;-68
2022/08/04 01:31:09;;;;;;;2.00;1.90;;;20.60;99.90;;;;;;493139;241;29173;-68
2022/08/04 01:33:10;;;;;;;2.30;2.20;;;20.60;99.90;;;;;;493272;241;28687;-68
2022/08/04 01:35:12;;;;;;;2.40;2.30;;;20.60;99.90;;;;;;493165;241;28703;-69
2022/08/04 01:37:13;;;;;;;2.23;2.03;;;20.50;99.90;;;;;;493257;241;28711;-71
2022/08/04 01:41:34;;;;;;;2.27;2.17;;;20.50;99.90;;;;;;493291;241;29178;-69
2022/08/04 01:43:35;;;;;;;2.43;2.27;;;20.50;99.90;;;;;;493266;241;29137;-68
2022/08/04 01:45:36;;;;;;;2.17;2.07;;;20.50;99.90;;;;;;493284;241;28680;-68
2022/08/04 01:47:37;;;;;;;2.20;2.10;;;20.50;99.90;;;;;;493217;241;28715;-70
2022/08/04 01:49:39;;;;;;;2.20;2.10;;;20.40;99.90;;;;;;493268;241;28678;-69
2022/08/04 01:51:40;;;;;;;2.10;2.00;;;20.40;99.90;;;;;;493258;241;28734;-68
2022/08/04 01:53:41;;;;;;;2.40;2.30;;;20.30;99.90;;;;;;493244;241;28684;-68
2022/08/04 01:55:42;;;;;;;2.40;2.20;;;20.20;99.90;;;;;;493267;241;28773;-68
2022/08/04 01:57:44;;;;;;;2.30;2.10;;;20.20;99.90;;;;;;493186;241;28728;-70
2022/08/04 01:59:45;;;;;;;2.20;2.10;;;20.20;99.90;;;;;;493245;241;28670;-67
2022/08/04 02:01:46;;;;;;;2.40;2.27;;;20.10;99.90;;;;;;493249;241;28802;-68
2022/08/04 02:03:47;;;;;;;2.10;2.00;;;20.10;99.90;;;;;;493247;241;30231;-67
2022/08/04 02:05:49;;;;;;;2.20;2.10;;;20.10;99.90;;;;;;493249;241;29222;-68
2022/08/04 02:07:50;;;;;;;2.20;2.10;;;20.20;99.90;;;;;;493139;241;29226;-69
2022/08/04 02:09:52;;;;;;;2.20;2.00;;;20.20;99.90;;;;;;493280;241;28766;-68
2022/08/04 02:11:52;;;;;;;1.97;1.87;;;20.30;99.90;;;;;;493223;241;28774;-68
2022/08/04 02:13:54;;;;;;;2.43;2.33;;;20.20;99.90;;;;;;493196;241;28821;-68
2022/08/04 02:15:55;;;;;;;2.40;2.30;;;20.20;99.90;;;;;;493283;241;28674;-70
2022/08/04 02:17:56;;;;;;;2.10;2.00;;;20.20;99.90;;;;;;493201;241;28825;-69
2022/08/04 02:19:57;;;;;;;2.40;2.30;;;20.10;99.90;;;;;;493259;241;28739;-67
2022/08/04 02:21:59;;;;;;;2.50;2.40;;;20.10;99.90;;;;;;493255;241;28714;-68
2022/08/04 02:24:01;;;;;;;2.50;2.40;;;20.20;99.90;;;;;;493277;241;28711;-74
2022/08/04 02:26:02;;;;;;;2.37;2.27;;;20.10;99.90;;;;;;493219;241;28760;-69
2022/08/04 02:28:04;;;;;;;2.27;2.17;;;20.00;99.90;;;;;;493224;241;28727;-68
2022/08/04 02:30:05;;;;;;;2.13;2.03;;;19.90;99.90;;;;;;493249;241;29191;-68
2022/08/04 02:32:06;;;;;;;2.10;2.00;;;19.90;99.90;;;;;;493278;241;29268;-72
2022/08/04 02:34:07;;;;;;;2.20;2.10;;;19.90;99.90;;;;;;493277;241;29110;-70
2022/08/04 02:36:09;;;;;;;2.50;2.30;;;19.90;99.90;;;;;;493121;241;29324;-70
2022/08/04 02:38:10;;;;;;;2.40;2.30;;;19.90;99.90;;;;;;493245;241;28765;-68
2022/08/04 02:40:11;;;;;;;2.73;2.53;;;19.90;99.90;;;;;;493256;241;28718;-69
2022/08/04 02:42:13;;;;;;;2.53;2.40;;;19.90;99.90;;;;;;493292;241;28725;-73
2022/08/04 02:44:15;;;;;;;2.50;2.30;;;19.90;99.90;;;;;;493280;241;28729;-71
2022/08/04 02:46:16;;;;;;;2.50;2.40;;;19.90;99.90;;;;;;493185;241;28693;-69
2022/08/04 02:48:17;;;;;;;2.77;2.57;;;19.80;99.90;;;;;;493273;241;29204;-69
2022/08/04 02:50:18;;;;;;;2.27;2.17;;;19.80;99.90;;;;;;493284;241;29369;-71
2022/08/04 02:52:20;;;;;;;2.23;2.13;;;19.80;99.90;;;;;;493274;241;29244;-69
2022/08/04 02:54:21;;;;;;;2.57;2.47;;;19.80;99.90;;;;;;493261;241;29195;-70
2022/08/04 02:56:22;;;;;;;2.43;2.23;;;19.80;99.90;;;;;;493191;241;28747;-68
2022/08/04 02:58:23;;;;;;;2.30;2.20;;;19.80;99.90;;;;;;493270;241;28726;-70
2022/08/04 03:00:25;;;;;;;2.93;2.70;;;19.70;99.90;;;;;;493244;241;28719;-73
2022/08/04 03:02:26;;;;;;;2.50;2.30;;;19.70;99.90;;;;;;493272;241;28751;-69
2022/08/04 03:04:27;;;;;;;2.77;2.57;;;19.70;99.90;;;;;;493206;241;28724;-70
2022/08/04 03:06:28;;;;;;;2.63;2.53;;;19.70;99.90;;;;;;493121;241;28723;-68
2022/08/04 03:08:30;;;;;;;2.30;2.20;;;19.80;99.90;;;;;;493254;241;28779;-69
2022/08/04 03:10:31;;;;;;;2.50;2.40;;;19.80;99.90;;;;;;493283;241;28743;-71
2022/08/04 03:12:32;;;;;;;2.50;2.30;;;19.80;99.90;;;;;;492707;241;29121;-69
2022/08/04 03:14:33;;;;;;;2.70;2.50;;;19.80;99.90;;;;;;492055;241;29600;-70
2022/08/04 03:16:35;;;;;;;2.10;2.00;;;19.80;99.90;;;;;;492678;241;29966;-68
2022/08/04 03:18:36;;;;;;;2.63;2.43;;;19.80;99.90;;;;;;493100;241;29213;-69
2022/08/04 03:20:37;;;;;;;2.40;2.30;;;19.80;99.90;;;;;;493276;241;28712;-71
2022/08/04 03:22:38;;;;;;;2.40;2.20;;;19.70;99.90;;;;;;493278;241;28782;-68
2022/08/04 03:24:42;;;;;;;1.90;1.80;;;19.70;99.90;;;;;;493243;241;28778;-70
2022/08/04 03:26:41;;;;;;;2.70;2.50;;;19.60;99.90;;;;;;492939;241;28695;-69
2022/08/04 03:28:42;;;;;;;2.23;2.13;;;19.60;99.90;;;;;;493280;241;28743;-70
2022/08/04 03:30:43;;;;;;;2.50;2.40;;;19.60;99.90;;;;;;493244;241;28732;-70
2022/08/04 03:32:45;;;;;;;2.23;2.13;;;19.50;99.90;;;;;;493266;241;28687;-69
2022/08/04 03:34:46;;;;;;;2.23;2.13;;;19.50;99.90;;;;;;493229;241;28715;-69
2022/08/04 03:36:47;;;;;;;2.30;2.20;;;19.50;99.90;;;;;;493051;241;28825;-72
2022/08/04 03:38:48;;;;;;;2.40;2.30;;;19.50;99.90;;;;;;493278;241;29143;-68
2022/08/04 03:40:50;;;;;;;2.40;2.30;;;19.50;99.90;;;;;;493295;241;29187;-70
2022/08/04 03:42:51;;;;;;;2.27;2.17;;;19.50;99.90;;;;;;493291;241;29229;-69
2022/08/04 03:44:52;;;;;;;2.23;2.10;;;19.50;99.90;;;;;;493287;241;28703;-68
2022/08/04 03:46:53;;;;;;;2.53;2.43;;;19.50;99.90;;;;;;493240;241;28790;-71
2022/08/04 03:48:55;;;;;;;2.13;2.03;;;19.40;99.90;;;;;;493285;241;28781;-69
2022/08/04 03:53:15;;;;;;;3.77;2.57;;;19.20;99.90;;;;;;493283;241;28952;-68
2022/08/04 03:55:17;;;;;;;2.63;2.43;;;19.10;99.90;;;;;;493286;241;28756;-69
2022/08/04 03:57:18;;;;;;;2.40;2.30;;;19.00;99.90;;;;;;493220;241;28717;-72
2022/08/04 03:59:19;;;;;;;2.50;2.40;;;19.00;99.90;;;;;;493272;241;28676;-73
2022/08/04 04:01:20;;;;;;;2.83;2.63;;;19.00;99.90;;;;;;493261;241;28779;-69
2022/08/04 04:03:22;;;;;;;2.33;2.13;;;19.00;99.90;;;;;;493268;241;28672;-68
2022/08/04 04:05:23;;;;;;;2.47;2.27;;;19.00;99.90;;;;;;493300;241;28762;-69
2022/08/04 04:07:24;;;;;;;2.23;2.13;;;19.00;99.90;;;;;;493245;241;28793;-72
2022/08/04 04:09:25;;;;;;;2.53;2.33;;;19.00;99.90;;;;;;493246;241;28746;-69
2022/08/04 04:11:27;;;;;;;2.10;2.00;;;18.90;99.90;;;;;;493278;241;29273;-69
2022/08/04 04:13:28;;;;;;;2.00;1.90;;;18.90;99.90;;;;;;493286;241;29901;-68
2022/08/04 04:15:29;;;;;;;2.37;2.27;;;18.90;99.90;;;;;;493269;241;29156;-69
2022/08/04 04:17:30;;;;;;;2.60;2.40;;;18.90;99.90;;;;;;493231;241;28825;-73
2022/08/04 04:19:32;;;;;;;2.47;2.33;;;18.80;99.90;;;;;;493299;241;28665;-69
2022/08/04 04:21:33;;;;;;;2.60;2.40;;;18.80;99.90;;;;;;493291;241;28775;-70
2022/08/04 04:23:34;;;;;;;2.73;2.63;;;18.80;99.90;;;;;;493302;241;28709;-68
2022/08/04 04:25:36;;;;;;;2.50;2.40;;;18.70;99.90;;;;;;493292;241;28676;-69
2022/08/04 04:27:37;;;;;;;2.40;2.30;;;18.80;99.90;;;;;;493234;241;28712;-69
2022/08/04 04:29:38;;;;;;;2.47;2.30;;;18.80;99.90;;;;;;493267;241;28759;-68
2022/08/04 04:31:39;;;;;;;2.70;2.50;;;18.90;99.90;;;;;;493285;241;28786;-69
2022/08/04 04:33:40;;;;;;;2.90;2.70;;;19.10;99.90;;;;;;493297;241;28776;-72
2022/08/04 04:35:42;;;;;;;2.40;2.30;;;19.10;99.90;;;;;;493110;241;29131;-69
2022/08/04 04:37:43;;;;;;;2.53;2.40;;;19.00;99.90;;;;;;493245;241;29192;-70
2022/08/04 04:39:44;;;;;;;2.63;2.50;;;19.00;99.90;;;;;;493279;241;29297;-69
2022/08/04 04:41:45;;;;;;;2.50;2.40;;;19.00;99.90;;;;;;493268;241;29170;-69
2022/08/04 04:43:47;;;;;;;2.70;2.53;;;19.00;99.90;;;;;;493295;241;28712;-72
2022/08/04 04:45:48;;;;;;;2.90;2.70;;;18.90;99.90;;;;;;493272;241;28668;-68
2022/08/04 04:47:49;;;;;;;3.00;2.80;;;19.00;99.90;;;;;;493226;241;28787;-70
2022/08/04 04:49:50;;;;;;;2.20;2.10;;;18.90;99.90;;;;;;493281;241;28701;-68
2022/08/04 04:51:52;;;;;;;2.87;2.67;;;19.00;99.90;;;;;;493266;241;28802;-69
2022/08/04 04:53:53;;;;;;;3.00;2.80;;;18.90;99.90;;;;;;493293;241;28712;-72
2022/08/04 04:55:54;;;;;;;2.77;2.67;;;18.90;99.90;;;;;;493258;241;28697;-69
2022/08/04 04:57:55;;;;;;;2.80;2.60;;;19.00;99.90;;;;;;493226;241;28858;-69
2022/08/04 04:59:57;;;;;;;2.80;2.70;;;19.10;99.90;;;;;;493283;241;28736;-69
2022/08/04 05:01:58;;;;;;;3.03;2.83;;;19.10;99.90;;;;;;493300;241;29275;-69
2022/08/04 05:03:59;;;;;;;2.90;2.73;;;19.10;99.90;;;;;;493295;241;29270;-70
2022/08/04 05:06:00;;;;;;;2.60;2.50;;;19.00;99.90;;;;;;493250;241;29230;-68
2022/08/04 05:08:02;;;;;;;2.93;2.73;;;19.10;99.90;;;;;;493237;241;28712;-70
2022/08/04 05:10:03;;;;;;;2.90;2.70;;;19.10;99.90;;;;;;493256;241;28763;-68
2022/08/04 05:12:04;;;;;;;2.90;2.70;;;19.20;99.90;;;;;;493269;241;28730;-68
2022/08/04 05:14:05;;;;;;;2.93;2.73;;;19.20;99.90;;;;;;493268;241;28708;-70
2022/08/04 05:16:07;;;;;;;2.83;2.63;;;19.30;99.90;;;;;;493203;241;28673;-75
2022/08/04 05:18:08;;;;;;;2.30;2.20;;;19.30;99.90;;;;;;493237;241;28712;-69
2022/08/04 05:20:09;;;;;;;2.90;2.70;;;19.40;99.90;;;;;;493278;241;28695;-73
2022/08/04 05:22:10;;;;;;;3.03;2.83;;;19.40;99.90;;;;;;493284;241;28761;-70
2022/08/04 05:24:12;;;;;;;2.57;2.47;;;19.50;99.90;;;;;;493297;241;28715;-69
2022/08/04 05:26:13;;;;;;;2.63;2.53;;;19.50;99.90;;;;;;493220;241;29133;-69
2022/08/04 05:28:14;;;;;;;3.10;2.90;;;19.50;99.90;;;;;;493257;241;29310;-68
2022/08/04 05:30:16;;;;;;;2.80;2.60;;;19.60;99.90;;;;;;493308;241;29372;-73
2022/08/04 05:32:17;;;;;;;2.50;2.33;;;19.60;99.90;;;;;;493309;241;28680;-69
2022/08/04 05:34:18;;;;;;;2.60;2.50;;;19.70;99.90;;;;;;493309;241;28767;-70
2022/08/04 05:36:19;;;;;;;2.93;2.77;;;19.80;99.90;;;;;;493099;241;28713;-69
2022/08/04 05:38:21;;;;;;;2.63;2.50;;;19.90;99.90;;;;;;493299;241;28719;-70
2022/08/04 05:40:22;;;;;;;2.50;2.40;;;20.00;99.90;;;;;;493302;241;29061;-69
2022/08/04 05:42:23;;;;;;;2.83;2.63;;;20.00;99.90;;;;;;493282;240;28695;-70
2022/08/04 05:44:24;;;;;;;2.70;2.60;;;20.20;99.90;;;;;;493296;241;28798;-71
2022/08/04 05:46:25;;;;;;;2.57;2.47;;;20.30;99.90;;;;;;493237;241;28689;-69
2022/08/04 05:48:27;;;;;;;2.30;2.20;;;20.40;99.90;;;;;;493279;241;28815;-69
2022/08/04 05:50:28;;;;;;;2.40;2.30;;;20.60;99.90;;;;;;493258;241;29246;-72
2022/08/04 05:52:29;;;;;;;2.83;2.73;;;20.70;99.90;;;;;;493290;241;29156;-69
2022/08/04 05:54:30;;;;;;;3.00;2.80;;;20.70;99.90;;;;;;493281;241;29296;-70
2022/08/04 05:56:32;;;;;;;2.87;2.77;;;20.80;99.90;;;;;;493182;241;29226;-69
2022/08/04 05:58:33;;;;;;;2.80;2.67;;;20.90;99.90;;;;;;493257;241;28720;-70
2022/08/04 06:00:34;;;;;;;2.60;2.40;;;21.00;99.90;;;;;;493282;241;28716;-69
2022/08/04 06:02:35;;;;;;;2.50;2.40;;;21.00;99.90;;;;;;493263;241;28681;-70
2022/08/04 06:04:37;;;;;;;2.90;2.70;;;21.10;99.90;;;;;;493274;241;28715;-70
2022/08/04 06:06:38;;;;;;;2.40;2.30;;;21.20;99.90;;;;;;493216;241;28759;-71
2022/08/04 06:08:39;;;;;;;2.60;2.50;;;21.30;99.90;;;;;;493266;241;29187;-70
2022/08/04 06:10:41;;;;;;;2.40;2.30;;;21.30;99.90;;;;;;493278;241;29056;-72
2022/08/04 06:12:42;;;;;;;2.50;2.40;;;21.40;99.90;;;;;;493274;241;28680;-70
2022/08/04 06:14:43;;;;;;;2.30;2.20;;;21.40;99.90;;;;;;493287;241;28815;-70
2022/08/04 06:16:44;;;;;;;2.70;2.50;;;21.40;99.90;;;;;;493226;241;29161;-69
2022/08/04 06:18:45;;;;;;;2.43;2.33;;;21.50;99.90;;;;;;493281;241;29192;-70
2022/08/04 06:20:47;;;;;;;2.90;2.70;;;21.50;99.90;;;;;;493302;241;29376;-72
2022/08/04 06:22:48;;;;;;;2.70;2.50;;;21.60;99.90;;;;;;493286;241;28671;-70
2022/08/04 06:24:51;;;;;;;2.47;2.37;;;21.60;99.90;;;;;;493300;241;28809;-70
2022/08/04 06:26:50;;;;;;;2.77;2.57;;;21.70;99.90;;;;;;493142;241;28763;-69
2022/08/04 06:28:52;;;;;;;2.47;2.30;;;21.70;99.90;;;;;;493278;241;28727;-70
2022/08/04 06:30:54;;;;;;;2.40;2.30;;;21.80;99.90;;;;;;493285;241;28715;-72
2022/08/04 06:32:55;;;;;;;2.40;2.30;;;21.80;99.90;;;;;;493269;241;28807;-69
2022/08/04 06:34:56;;;;;;;2.60;2.50;;;21.90;99.90;;;;;;493246;241;28789;-69
2022/08/04 06:36:57;;;;;;;3.57;2.57;;;22.00;99.90;;;;;;493078;241;29167;-70
2022/08/04 06:38:58;;;;;;;2.50;2.30;;;22.10;99.90;;;;;;493253;241;29184;-70
2022/08/04 06:41:02;;;;;;;2.30;2.20;;;22.20;99.90;;;;;;493279;241;29193;-73
2022/08/04 06:43:01;;;;;;;2.23;2.13;;;22.30;99.90;;;;;;493068;241;29132;-69
2022/08/04 06:45:02;;;;;;;2.30;2.20;;;22.50;99.90;;;;;;493282;241;28714;-70
2022/08/04 06:47:03;;;;;;;2.50;2.40;;;22.60;99.90;;;;;;493224;241;28758;-69
2022/08/04 06:49:04;;;;;;;2.30;2.20;;;22.70;99.90;;;;;;493258;241;28714;-70
2022/08/04 06:51:06;;;;;;;3.00;2.80;;;22.90;99.90;;;;;;493321;241;29150;-73
2022/08/04 06:53:07;;;;;;;2.60;2.40;;;23.10;99.90;;;;;;493303;241;28715;-69
2022/08/04 06:55:08;;;;;;;2.37;2.23;;;23.30;99.90;;;;;;493281;241;28707;-71
2022/08/04 06:57:09;;;;;;;2.40;2.30;;;23.60;99.90;;;;;;493235;241;28694;-70
2022/08/04 06:59:11;;;;;;;2.70;2.50;;;23.60;99.90;;;;;;493286;241;28739;-69
2022/08/04 07:01:12;;;;;;;2.40;2.30;;;23.70;99.90;;;;;;493314;241;29215;-72
2022/08/04 07:03:13;;;;;;;2.23;2.13;;;23.90;99.90;;;;;;493297;241;29155;-69
2022/08/04 07:05:15;;;;;;;2.40;2.30;;;23.90;99.90;;;;;;493275;241;29287;-70
2022/08/04 07:07:16;;;;;;;2.23;2.13;;;24.10;99.90;;;;;;493181;241;29142;-69
2022/08/04 07:09:17;;;;;;;2.87;2.60;;;24.10;99.90;;;;;;493265;241;28718;-70
2022/08/04 07:11:18;;;;;;;2.40;2.30;;;24.20;99.90;;;;;;493273;241;28831;-72
2022/08/04 07:13:19;;;;;;;2.60;2.50;;;24.30;99.90;;;;;;493289;241;28667;-69
2022/08/04 07:15:21;;;;;;;2.40;2.30;;;24.40;99.90;;;;;;493263;241;28731;-69
2022/08/04 07:17:22;;;;;;;2.30;2.10;;;24.40;99.90;;;;;;493189;241;28677;-69
2022/08/04 07:19:23;;;;;;;2.43;2.27;;;24.50;99.90;;;;;;493269;241;28715;-70
2022/08/04 07:21:26;;;;;;;2.23;2.13;;;24.70;99.90;;;;;;493265;241;28735;-72
2022/08/04 07:23:26;;;;;;;2.30;2.20;;;24.70;99.90;;;;;;493106;241;28735;-68
2022/08/04 07:25:27;;;;;;;2.10;2.00;;;24.60;99.90;;;;;;493252;241;28718;-70
2022/08/04 07:27:28;;;;;;;2.30;2.20;;;24.80;99.90;;;;;;493203;241;30024;-70
2022/08/04 07:29:29;;;;;;;2.13;2.03;;;24.80;99.90;;;;;;493278;241;29266;-69
2022/08/04 07:31:31;;;;;;;2.40;2.30;;;25.00;99.90;;;;;;493278;241;29257;-72
2022/08/04 07:33:32;;;;;;;2.33;2.17;;;25.10;99.90;;;;;;493272;241;28750;-69
2022/08/04 07:35:33;;;;;;;2.57;2.37;;;25.00;99.90;;;;;;493090;241;28833;-71
2022/08/04 07:37:34;;;;;;;2.50;2.40;;;25.00;99.90;;;;;;493228;241;28787;-69
2022/08/04 07:39:36;;;;;;;2.03;1.93;;;25.20;99.90;;;;;;493265;241;28799;-70
2022/08/04 07:41:37;;;;;;;2.57;2.47;;;25.30;99.90;;;;;;493271;241;28767;-74
2022/08/04 07:43:38;;;;;;;2.57;2.40;;;25.50;99.90;;;;;;493247;241;28687;-69
2022/08/04 07:45:39;;;;;;;2.40;2.30;;;25.60;99.90;;;;;;493262;241;28720;-70
2022/08/04 07:47:41;;;;;;;2.40;2.30;;;25.60;99.90;;;;;;493163;241;28684;-70
2022/08/04 07:49:42;;;;;;;2.37;2.27;;;25.70;99.90;;;;;;493248;241;28692;-70
2022/08/04 07:51:43;;;;;;;2.50;2.30;;;25.80;99.90;;;;;;493272;241;29176;-73
2022/08/04 07:53:44;;;;;;;2.50;2.37;;;25.80;99.90;;;;;;493255;241;29188;-70
2022/08/04 07:55:46;;;;;;;2.33;2.13;;;25.80;99.90;;;;;;493269;241;29274;-70
2022/08/04 07:57:47;;;;;;;1.93;1.83;;;25.70;99.90;;;;;;493227;241;28763;-69
2022/08/04 07:59:48;;;;;;;1.87;1.77;;;25.90;99.90;;;;;;493243;241;28688;-70
2022/08/04 08:01:49;;;;;;;2.30;2.20;;;25.90;99.90;;;;;;493275;241;28726;-71
2022/08/04 08:03:51;;;;;;;2.43;2.23;;;26.00;99.90;;;;;;493266;241;28746;-71
2022/08/04 08:05:52;;;;;;;2.03;1.83;;;26.10;99.90;;;;;;493272;241;28807;-70
2022/08/04 08:07:55;;;;;;;2.10;2.00;;;26.10;99.90;;;;;;493215;241;28686;-69
2022/08/04 08:09:54;;;;;;;2.30;2.20;;;26.30;99.90;;;;;;493144;241;28801;-69
2022/08/04 08:11:56;;;;;;;2.20;2.10;;;26.50;99.90;;;;;;493272;241;28793;-72
2022/08/04 08:13:57;;;;;;;2.37;2.20;;;26.50;99.90;;;;;;493265;241;28771;-69
2022/08/04 08:15:58;;;;;;;2.50;2.40;;;26.50;99.90;;;;;;493282;241;29258;-69
2022/08/04 08:17:59;;;;;;;2.20;2.10;;;26.60;99.90;;;;;;493226;241;29253;-69
2022/08/04 08:20:01;;;;;;;2.30;2.20;;;26.80;99.90;;;;;;493280;241;29131;-69
2022/08/04 08:22:02;;;;;;;3.20;2.40;;;26.80;99.90;;;;;;493300;241;28719;-72
2022/08/04 08:24:03;;;;;;;2.70;2.50;;;26.80;99.90;;;;;;493257;241;28660;-70
2022/08/04 08:26:04;;;;;;;2.70;2.50;;;26.90;99.90;;;;;;493223;241;28842;-72
2022/08/04 08:28:06;;;;;;;2.63;2.40;;;27.00;99.90;;;;;;493222;241;28759;-69
2022/08/04 08:30:07;;;;;;;2.10;2.00;;;26.90;99.90;;;;;;493237;241;28676;-70
2022/08/04 08:32:08;;;;;;;2.17;2.07;;;26.90;99.90;;;;;;493258;241;28793;-73
2022/08/04 08:34:09;;;;;;;2.73;2.00;;;26.80;99.90;;;;;;493231;241;28688;-69
2022/08/04 08:36:11;;;;;;;2.10;2.00;;;26.80;99.90;;;;;;493012;241;28735;-69
2022/08/04 08:38:12;;;;;;;2.00;1.90;;;26.90;99.90;;;;;;493217;241;28686;-69
2022/08/04 08:40:13;;;;;;;2.43;2.30;;;27.00;99.90;;;;;;493235;241;29247;-70
2022/08/04 08:42:14;;;;;;;2.00;1.90;;;27.10;99.90;;;;;;493245;241;29206;-74
2022/08/04 08:44:16;;;;;;;2.20;2.10;;;27.30;99.90;;;;;;493217;241;29147;-69
2022/08/04 08:46:17;;;;;;;2.10;2.00;;;27.40;99.90;;;;;;493191;241;29265;-69
2022/08/04 08:48:18;;;;;;;2.00;1.90;;;27.50;99.90;;;;;;493261;241;28655;-69
2022/08/04 08:50:19;;;;;;;2.50;2.40;;;27.70;99.90;;;;;;493245;241;28691;-69
2022/08/04 08:52:21;;;;;;;2.30;2.10;;;27.80;99.90;;;;;;493292;241;28712;-73
2022/08/04 08:54:22;;;;;;;2.73;2.53;;;28.00;99.90;;;;;;493283;241;28671;-69
2022/08/04 08:56:23;;;;;;;2.40;2.20;;;28.00;99.90;;;;;;493228;241;28716;-70
2022/08/04 08:58:24;;;;;;;2.60;2.40;;;28.00;99.90;;;;;;493246;241;28735;-70
2022/08/04 09:00:26;;;;;;;2.57;2.47;;;28.20;99.90;;;;;;493287;241;28752;-70
2022/08/04 09:02:27;;;;;;;2.20;2.10;;;28.20;99.90;;;;;;493277;241;28794;-70
2022/08/04 09:04:28;;;;;;;2.27;2.17;;;28.10;99.90;;;;;;493269;241;29764;-69
2022/08/04 09:06:30;;;;;;;2.50;2.37;;;28.10;99.90;;;;;;493213;241;29302;-70
2022/08/04 09:08:31;;;;;;;2.90;2.60;;;28.00;99.90;;;;;;493197;241;29202;-69
2022/08/04 09:10:32;;;;;;;2.20;2.10;;;28.10;99.90;;;;;;493258;241;29259;-69
2022/08/04 09:12:33;;;;;;;2.33;2.23;;;28.30;99.90;;;;;;493285;241;28726;-73
2022/08/04 09:14:34;;;;;;;2.47;2.33;;;28.60;99.90;;;;;;493270;241;28781;-70
2022/08/04 09:16:36;;;;;;;2.10;2.00;;;28.70;99.90;;;;;;493216;241;28747;-72
2022/08/04 09:18:37;;;;;;;2.57;2.37;;;28.80;99.90;;;;;;493262;241;28679;-70
2022/08/04 09:20:38;;;;;;;2.43;2.23;;;28.80;99.90;;;;;;493257;241;28763;-70
2022/08/04 09:22:41;;;;;;;2.23;2.13;;;28.90;99.90;;;;;;493280;241;28731;-72
2022/08/04 09:24:42;;;;;;;2.60;2.40;;;28.80;99.90;;;;;;493291;241;28778;-70
2022/08/04 09:26:43;;;;;;;2.33;2.13;;;28.80;99.90;;;;;;493225;241;28794;-70
2022/08/04 09:28:44;;;;;;;3.30;2.30;;;28.80;99.90;;;;;;490717;241;36436;-70
2022/08/04 09:30:46;;;;;;;2.40;2.30;;;29.10;99.90;;;;;;493295;241;27995;-73
2022/08/04 09:32:47;;;;;;;2.50;2.30;;;29.20;99.90;;;;;;493276;241;29233;-69
2022/08/04 09:34:48;;;;;;;2.10;2.00;;;29.20;99.90;;;;;;493294;241;28700;-73
2022/08/04 09:36:49;;;;;;;2.23;2.13;;;29.20;99.90;;;;;;493071;241;28678;-70
2022/08/04 09:38:51;;;;;;;2.70;2.30;;;29.50;99.90;;;;;;493271;241;28715;-70
2022/08/04 09:40:52;;;;;;;2.60;2.47;;;29.50;99.90;;;;;;493321;241;28793;-72
2022/08/04 09:42:53;;;;;;;2.20;2.10;;;29.60;99.90;;;;;;493268;241;28668;-69
2022/08/04 09:44:55;;;;;;;2.37;2.23;;;29.60;99.90;;;;;;493289;241;28754;-70
2022/08/04 09:46:56;;;;;;;2.30;2.20;;;29.60;99.90;;;;;;493223;241;28691;-70
2022/08/04 09:48:57;;;;;;;2.43;2.30;;;29.40;99.90;;;;;;493248;241;28805;-70
2022/08/04 09:50:58;;;;;;;2.10;2.00;;;29.50;99.80;;;;;;493237;241;28717;-73
2022/08/04 09:52:59;;;;;;;2.57;2.37;;;29.40;99.20;;;;;;493244;241;29233;-69
2022/08/04 09:55:01;;;;;;;1.97;1.87;;;29.40;99.30;;;;;;493239;241;29233;-70
2022/08/04 09:57:02;;;;;;;3.50;2.00;;;29.50;99.20;;;;;;493231;241;29134;-70
2022/08/04 09:59:06;;;;;;;2.20;2.10;;;29.60;98.80;;;;;;493288;241;28716;-70
2022/08/04 10:01:04;;;;;;;2.03;1.93;;;29.60;98.80;;;;;;493131;241;28715;-73
2022/08/04 10:03:06;;;;;;;1.90;1.80;;;29.70;98.60;;;;;;493288;241;28698;-70
2022/08/04 10:05:07;;;;;;;2.10;2.00;;;29.40;98.50;;;;;;493264;241;28782;-71
2022/08/04 10:07:08;;;;;;;2.23;2.10;;;29.50;98.50;;;;;;493217;241;28751;-69
2022/08/04 10:09:09;;;;;;;1.80;1.70;;;29.60;98.10;;;;;;493263;241;28730;-70
2022/08/04 10:11:11;;;;;;;5.23;1.90;;;29.70;97.50;;;;;;493285;241;28746;-72
2022/08/04 10:13:12;;;;;;;1.70;1.60;;;29.50;96.30;;;;;;493240;241;28825;-69
2022/08/04 10:15:13;;;;;;;2.00;1.90;;;29.60;95.80;;;;;;493279;241;28818;-70
2022/08/04 10:17:15;;;;;;;2.20;2.00;;;29.90;94.70;;;;;;493173;241;29202;-69
2022/08/04 10:19:16;;;;;;;2.03;1.77;;;29.90;95.60;;;;;;493240;241;29233;-70
2022/08/04 10:21:17;;;;;;;2.00;1.80;;;30.00;95.00;;;;;;493279;241;29182;-72
2022/08/04 10:23:18;;;;;;;2.00;1.80;;;30.00;94.40;;;;;;493280;241;29191;-69
2022/08/04 10:25:19;;;;;;;3.10;2.20;;;30.10;94.80;;;;;;493270;241;28687;-70
2022/08/04 10:27:21;;;;;;;1.97;1.87;;;30.20;93.60;;;;;;493181;241;28704;-69
2022/08/04 10:29:22;;;;;;;2.13;2.00;;;30.30;94.50;;;;;;493261;241;28686;-70
2022/08/04 10:31:23;;;;;;;1.77;1.63;;;30.40;93.20;;;;;;493260;241;28714;-73
2022/08/04 10:33:24;;;;;;;1.90;1.70;;;30.50;92.40;;;;;;493260;241;28802;-69
2022/08/04 10:35:26;;;;;;;1.97;1.87;;;30.40;92.60;;;;;;493122;241;28715;-71